CES5412 ZUUU-ZSSS
Flight info
| Callsign | CES5412 |
|---|---|
| Flight time | 0h 43m |
| Altitude | 41100 |
| Route | UBRAB9W UBRAB B213 WHA R343 PK |
| Aircraft | A359/H-SDE2E3GHIJ3J4J5LM1ORWXY/LB1D1 |
Departure
| Time | 2026-05-05 08:39 |
|---|---|
| Airport | Chengdu Shuangliu International Airport (ZUUU) |
Arrival
| Time | 2026-05-05 09:22 |
|---|---|
| Airport | Shanghai Hongqiao International Airport (ZSSS) |
| Time | Latitude | Longitude | Altitude | Speed | Heading |
|---|---|---|---|---|---|
| 2026-05-05 08:28 | 30.57335 | 103.94996 | 1654 ft | 0 kts | 111° |
| 2026-05-05 08:32 | 30.57337 | 103.94989 | 1654 ft | 2 kts | 111° |
| 2026-05-05 08:32 | 30.57343 | 103.94972 | 1654 ft | 2 kts | 114° |
| 2026-05-05 08:33 | 30.57350 | 103.94955 | 1654 ft | 2 kts | 117° |
| 2026-05-05 08:33 | 30.57358 | 103.94938 | 1654 ft | 2 kts | 120° |
| 2026-05-05 08:33 | 30.57367 | 103.94922 | 1654 ft | 2 kts | 127° |
| 2026-05-05 08:33 | 30.57378 | 103.94907 | 1654 ft | 2 kts | 137° |
| 2026-05-05 08:34 | 30.57391 | 103.94896 | 1654 ft | 2 kts | 158° |
| 2026-05-05 08:34 | 30.57407 | 103.94893 | 1654 ft | 2 kts | 189° |
| 2026-05-05 08:34 | 30.57415 | 103.94895 | 1653 ft | 0 kts | 200° |
| 2026-05-05 08:36 | 30.57340 | 103.94861 | 1653 ft | 16 kts | 202° |
| 2026-05-05 08:36 | 30.57226 | 103.94808 | 1653 ft | 19 kts | 201° |
| 2026-05-05 08:36 | 30.57091 | 103.94746 | 1653 ft | 23 kts | 201° |
| 2026-05-05 08:36 | 30.56938 | 103.94674 | 1653 ft | 25 kts | 201° |
| 2026-05-05 08:37 | 30.56766 | 103.94616 | 1653 ft | 27 kts | 196° |
| 2026-05-05 08:37 | 30.56587 | 103.94535 | 1654 ft | 29 kts | 203° |
| 2026-05-05 08:37 | 30.56395 | 103.94445 | 1654 ft | 31 kts | 201° |
| 2026-05-05 08:37 | 30.56247 | 103.94341 | 1654 ft | 8 kts | 255° |
| 2026-05-05 08:38 | 30.56261 | 103.94276 | 1654 ft | 10 kts | 288° |
| 2026-05-05 08:38 | 30.56294 | 103.94171 | 1666 ft | 19 kts | 291° |
| 2026-05-05 08:38 | 30.56378 | 103.94031 | 1654 ft | 19 kts | 341° |
| 2026-05-05 08:38 | 30.56483 | 103.94065 | 1668 ft | 22 kts | 25° |
| 2026-05-05 08:39 | 30.56878 | 103.94249 | 1664 ft | 103 kts | 21° |
| 2026-05-05 08:39 | 30.57776 | 103.94668 | 1677 ft | 172 kts | 23° |
| 2026-05-05 08:39 | 30.58871 | 103.95163 | 2525 ft | 167 kts | 23° |
| 2026-05-05 08:39 | 30.60010 | 103.95704 | 3109 ft | 191 kts | 26° |
| 2026-05-05 08:40 | 30.61345 | 103.96342 | 3436 ft | 223 kts | 25° |
| 2026-05-05 08:40 | 30.62925 | 103.97085 | 3857 ft | 256 kts | 24° |
| 2026-05-05 08:40 | 30.66404 | 103.98721 | 5515 ft | 278 kts | 26° |
| 2026-05-05 08:40 | 30.69043 | 104.01959 | 7497 ft | 286 kts | 59° |
| 2026-05-05 08:41 | 30.71209 | 104.05985 | 9569 ft | 300 kts | 59° |
| 2026-05-05 08:41 | 30.73549 | 104.10291 | 10993 ft | 338 kts | 58° |
| 2026-05-05 08:41 | 30.77067 | 104.14343 | 12075 ft | 375 kts | 27° |
| 2026-05-05 08:41 | 30.81922 | 104.16796 | 13801 ft | 385 kts | 21° |
| 2026-05-05 08:42 | 30.86931 | 104.19181 | 15398 ft | 391 kts | 21° |
| 2026-05-05 08:42 | 30.91785 | 104.22149 | 17007 ft | 399 kts | 36° |
| 2026-05-05 08:42 | 30.95425 | 104.27073 | 18526 ft | 410 kts | 60° |
| 2026-05-05 08:42 | 30.97076 | 104.33489 | 19819 ft | 422 kts | 83° |
| 2026-05-05 08:43 | 30.97645 | 104.40380 | 21175 ft | 432 kts | 84° |
| 2026-05-05 08:43 | 30.98204 | 104.47438 | 22545 ft | 442 kts | 84° |
| 2026-05-05 08:43 | 30.98592 | 104.52204 | 23429 ft | 449 kts | 84° |
| 2026-05-05 08:43 | 30.99188 | 104.59523 | 24673 ft | 457 kts | 83° |
| 2026-05-05 08:44 | 30.99794 | 104.66947 | 25982 ft | 464 kts | 83° |
| 2026-05-05 08:44 | 31.00606 | 104.76973 | 27712 ft | 474 kts | 83° |
| 2026-05-05 08:44 | 31.01226 | 104.84692 | 28987 ft | 482 kts | 83° |
| 2026-05-05 08:44 | 31.01160 | 104.98538 | 30785 ft | 504 kts | 102° |
| 2026-05-05 08:45 | 30.97512 | 105.08884 | 31930 ft | 519 kts | 114° |
| 2026-05-05 08:45 | 30.91307 | 105.24422 | 33532 ft | 536 kts | 114° |
| 2026-05-05 08:45 | 30.85801 | 105.40478 | 34925 ft | 541 kts | 96° |
| 2026-05-05 08:45 | 30.87490 | 105.57446 | 36605 ft | 527 kts | 70° |
| 2026-05-05 08:46 | 30.91090 | 105.73887 | 38483 ft | 521 kts | 69° |
| 2026-05-05 08:46 | 30.94597 | 105.90413 | 39464 ft | 529 kts | 70° |
| 2026-05-05 08:46 | 30.95185 | 106.07682 | 40420 ft | 554 kts | 99° |
| 2026-05-05 08:46 | 30.91780 | 106.22406 | 40852 ft | 557 kts | 104° |
| 2026-05-05 08:47 | 30.90709 | 106.26744 | 40852 ft | 558 kts | 104° |
| 2026-05-05 08:47 | 30.88270 | 106.36145 | 40859 ft | 560 kts | 110° |
| 2026-05-05 08:47 | 30.78821 | 106.50292 | 40859 ft | 558 kts | 139° |
| 2026-05-05 08:48 | 30.67385 | 106.62546 | 40859 ft | 559 kts | 139° |
| 2026-05-05 08:48 | 30.44572 | 106.87109 | 40880 ft | 560 kts | 139° |
| 2026-05-05 08:49 | 30.21462 | 107.11340 | 40885 ft | 561 kts | 141° |
| 2026-05-05 08:49 | 29.99214 | 107.36622 | 40878 ft | 564 kts | 121° |
| 2026-05-05 08:49 | 29.93818 | 107.53434 | 40886 ft | 560 kts | 103° |
| 2026-05-05 08:50 | 29.90857 | 107.70843 | 40889 ft | 545 kts | 80° |
| 2026-05-05 08:50 | 29.94372 | 107.87470 | 40907 ft | 530 kts | 66° |
| 2026-05-05 08:50 | 29.98591 | 108.03767 | 40923 ft | 532 kts | 66° |
| 2026-05-05 08:51 | 30.06810 | 108.36571 | 40930 ft | 532 kts | 66° |
| 2026-05-05 08:51 | 30.15349 | 108.69115 | 40945 ft | 525 kts | 63° |
| 2026-05-05 08:52 | 30.24536 | 109.01167 | 40939 ft | 527 kts | 67° |
| 2026-05-05 08:52 | 30.32399 | 109.33849 | 40937 ft | 527 kts | 66° |
| 2026-05-05 08:53 | 30.39813 | 109.66773 | 40931 ft | 533 kts | 73° |
| 2026-05-05 08:53 | 30.44739 | 110.00485 | 40940 ft | 535 kts | 73° |
| 2026-05-05 08:54 | 30.49651 | 110.34552 | 40937 ft | 535 kts | 74° |
| 2026-05-05 08:54 | 30.54437 | 110.68603 | 40928 ft | 535 kts | 74° |
| 2026-05-05 08:55 | 30.59137 | 111.02621 | 40904 ft | 532 kts | 75° |
| 2026-05-05 08:55 | 30.63728 | 111.36526 | 40886 ft | 531 kts | 75° |
| 2026-05-05 08:56 | 30.66438 | 111.70915 | 40886 ft | 537 kts | 81° |
| 2026-05-05 08:56 | 30.68272 | 112.05494 | 40902 ft | 535 kts | 79° |
| 2026-05-05 08:57 | 30.70651 | 112.39853 | 40910 ft | 533 kts | 80° |
| 2026-05-05 08:57 | 30.72870 | 112.74201 | 40926 ft | 533 kts | 81° |
| 2026-05-05 08:58 | 30.74997 | 113.08533 | 40955 ft | 533 kts | 81° |
| 2026-05-05 08:58 | 30.76081 | 113.42912 | 40953 ft | 532 kts | 84° |
| 2026-05-05 08:59 | 30.76883 | 113.77261 | 40958 ft | 531 kts | 85° |
| 2026-05-05 08:59 | 30.77747 | 114.11562 | 40959 ft | 530 kts | 83° |
| 2026-05-05 08:59 | 30.80687 | 114.28011 | 40959 ft | 517 kts | 65° |
| 2026-05-05 09:00 | 30.85790 | 114.43677 | 40976 ft | 517 kts | 64° |
| 2026-05-05 09:00 | 30.95973 | 114.75084 | 40983 ft | 518 kts | 64° |
| 2026-05-05 09:01 | 31.05998 | 115.06296 | 40990 ft | 518 kts | 65° |
| 2026-05-05 09:01 | 31.16061 | 115.37840 | 41003 ft | 519 kts | 65° |
| 2026-05-05 09:02 | 31.26274 | 115.69469 | 41014 ft | 521 kts | 65° |
| 2026-05-05 09:02 | 31.36488 | 116.01218 | 41008 ft | 523 kts | 65° |
| 2026-05-05 09:03 | 31.46824 | 116.33048 | 40993 ft | 523 kts | 65° |
| 2026-05-05 09:03 | 31.57077 | 116.65000 | 40992 ft | 524 kts | 65° |
| 2026-05-05 09:04 | 31.67264 | 116.97062 | 40993 ft | 526 kts | 66° |
| 2026-05-05 09:04 | 31.76847 | 117.29575 | 41002 ft | 533 kts | 79° |
| 2026-05-05 09:04 | 31.76444 | 117.47058 | 41011 ft | 538 kts | 94° |
| 2026-05-05 09:05 | 31.75128 | 117.64600 | 41018 ft | 539 kts | 94° |
| 2026-05-05 09:05 | 31.72603 | 117.99660 | 41022 ft | 538 kts | 94° |
| 2026-05-05 09:06 | 31.70115 | 118.34703 | 41017 ft | 538 kts | 94° |
| 2026-05-05 09:06 | 31.67590 | 118.69775 | 41011 ft | 539 kts | 95° |
| 2026-05-05 09:07 | 31.64961 | 119.04899 | 41015 ft | 540 kts | 95° |
| 2026-05-05 09:07 | 31.64387 | 119.15056 | 40746 ft | 536 kts | 93° |
| 2026-05-05 09:07 | 31.64029 | 119.23821 | 39191 ft | 540 kts | 92° |
| 2026-05-05 09:07 | 31.63670 | 119.32657 | 37470 ft | 542 kts | 93° |
| 2026-05-05 09:08 | 31.63282 | 119.41444 | 35888 ft | 537 kts | 92° |
| 2026-05-05 09:08 | 31.62872 | 119.50155 | 34286 ft | 531 kts | 93° |
| 2026-05-05 09:08 | 31.62456 | 119.58656 | 31709 ft | 515 kts | 92° |
| 2026-05-05 09:08 | 31.62051 | 119.66849 | 29549 ft | 496 kts | 92° |
| 2026-05-05 09:09 | 31.61675 | 119.74911 | 27834 ft | 491 kts | 92° |
| 2026-05-05 09:09 | 31.61316 | 119.82824 | 26342 ft | 481 kts | 92° |
| 2026-05-05 09:09 | 31.60961 | 119.90503 | 24885 ft | 473 kts | 92° |
| 2026-05-05 09:09 | 31.60601 | 119.98135 | 23391 ft | 464 kts | 92° |
| 2026-05-05 09:10 | 31.60243 | 120.05611 | 21847 ft | 452 kts | 92° |
| 2026-05-05 09:10 | 31.59890 | 120.12884 | 20411 ft | 441 kts | 92° |
| 2026-05-05 09:10 | 31.59543 | 120.19984 | 18967 ft | 432 kts | 93° |
| 2026-05-05 09:10 | 31.59197 | 120.26967 | 17426 ft | 425 kts | 93° |
| 2026-05-05 09:11 | 31.58287 | 120.33710 | 15954 ft | 414 kts | 107° |
| 2026-05-05 09:11 | 31.56508 | 120.40051 | 14494 ft | 405 kts | 109° |
| 2026-05-05 09:11 | 31.54682 | 120.46237 | 12957 ft | 397 kts | 109° |
| 2026-05-05 09:11 | 31.52892 | 120.52250 | 11492 ft | 385 kts | 110° |
| 2026-05-05 09:12 | 31.51178 | 120.57987 | 10787 ft | 354 kts | 110° |
| 2026-05-05 09:12 | 31.49635 | 120.63144 | 10544 ft | 318 kts | 110° |
| 2026-05-05 09:12 | 31.48241 | 120.67787 | 10292 ft | 288 kts | 111° |
| 2026-05-05 09:12 | 31.46933 | 120.72136 | 10020 ft | 280 kts | 110° |
| 2026-05-05 09:13 | 31.45599 | 120.76558 | 9613 ft | 297 kts | 111° |
| 2026-05-05 09:13 | 31.44238 | 120.81077 | 8690 ft | 292 kts | 111° |
| 2026-05-05 09:13 | 31.42896 | 120.85526 | 7997 ft | 287 kts | 111° |
| 2026-05-05 09:13 | 31.41575 | 120.89890 | 7323 ft | 281 kts | 111° |
| 2026-05-05 09:14 | 31.40281 | 120.94168 | 6646 ft | 277 kts | 112° |
| 2026-05-05 09:14 | 31.39006 | 120.98371 | 6080 ft | 266 kts | 111° |
| 2026-05-05 09:14 | 31.37844 | 121.02258 | 5810 ft | 240 kts | 110° |
| 2026-05-05 09:14 | 31.36973 | 121.05866 | 5551 ft | 225 kts | 105° |
| 2026-05-05 09:15 | 31.36416 | 121.09469 | 5202 ft | 225 kts | 101° |
| 2026-05-05 09:15 | 31.36156 | 121.13097 | 4763 ft | 224 kts | 95° |
| 2026-05-05 09:15 | 31.36195 | 121.16743 | 4280 ft | 223 kts | 90° |
| 2026-05-05 09:15 | 31.36495 | 121.20106 | 3878 ft | 223 kts | 85° |
| 2026-05-05 09:16 | 31.36740 | 121.21889 | 3654 ft | 222 kts | 83° |
| 2026-05-05 09:16 | 31.37000 | 121.23668 | 3421 ft | 220 kts | 84° |
| 2026-05-05 09:16 | 31.37257 | 121.25422 | 3191 ft | 218 kts | 84° |
| 2026-05-05 09:16 | 31.37511 | 121.27178 | 2967 ft | 219 kts | 84° |
| 2026-05-05 09:17 | 31.37566 | 121.28929 | 2743 ft | 212 kts | 103° |
| 2026-05-05 09:17 | 31.37035 | 121.30436 | 2689 ft | 193 kts | 128° |
| 2026-05-05 09:17 | 31.36260 | 121.31656 | 2616 ft | 181 kts | 131° |
| 2026-05-05 09:17 | 31.35356 | 121.32575 | 2549 ft | 166 kts | 156° |
| 2026-05-05 09:18 | 31.34290 | 121.32877 | 2480 ft | 149 kts | 175° |
| 2026-05-05 09:18 | 31.33308 | 121.32919 | 2475 ft | 135 kts | 180° |
| 2026-05-05 09:18 | 31.32377 | 121.32940 | 2206 ft | 136 kts | 176° |
| 2026-05-05 09:18 | 31.31441 | 121.32998 | 1964 ft | 131 kts | 175° |
| 2026-05-05 09:19 | 31.30567 | 121.33045 | 1789 ft | 121 kts | 176° |
| 2026-05-05 09:19 | 31.29759 | 121.33087 | 1642 ft | 113 kts | 175° |
| 2026-05-05 09:19 | 31.28973 | 121.33130 | 1487 ft | 114 kts | 175° |
| 2026-05-05 09:19 | 31.28185 | 121.33173 | 1334 ft | 113 kts | 175° |
| 2026-05-05 09:20 | 31.27395 | 121.33217 | 1197 ft | 113 kts | 176° |
| 2026-05-05 09:20 | 31.26626 | 121.33258 | 1044 ft | 109 kts | 175° |
| 2026-05-05 09:20 | 31.25867 | 121.33299 | 906 ft | 109 kts | 175° |
| 2026-05-05 09:20 | 31.25101 | 121.33340 | 776 ft | 110 kts | 173° |
| 2026-05-05 09:21 | 31.24343 | 121.33380 | 616 ft | 109 kts | 173° |
| 2026-05-05 09:21 | 31.23595 | 121.33402 | 493 ft | 108 kts | 171° |
| 2026-05-05 09:21 | 31.22835 | 121.33469 | 324 ft | 114 kts | 175° |
| 2026-05-05 09:21 | 31.22020 | 121.33513 | 215 ft | 123 kts | 175° |
| 2026-05-05 09:22 | 31.21183 | 121.33550 | 52 ft | 118 kts | 174° |
| 2026-05-05 09:22 | 31.20424 | 121.33597 | 32 ft | 102 kts | 175° |
| 2026-05-05 09:22 | 31.19893 | 121.33626 | 28 ft | 38 kts | 178° |
| 2026-05-05 09:22 | 31.19655 | 121.33639 | 26 ft | 33 kts | 177° |
| 2026-05-05 09:23 | 31.19421 | 121.33624 | 27 ft | 34 kts | 190° |
| 2026-05-05 09:23 | 31.19264 | 121.33515 | 30 ft | 13 kts | 261° |
| 2026-05-05 09:23 | 31.19291 | 121.33477 | 28 ft | 7 kts | 344° |
| 2026-05-05 09:23 | 31.19412 | 121.33459 | 28 ft | 24 kts | 356° |
| 2026-05-05 09:24 | 31.19590 | 121.33447 | 28 ft | 28 kts | 356° |
| 2026-05-05 09:24 | 31.19777 | 121.33432 | 28 ft | 24 kts | 341° |
| 2026-05-05 09:24 | 31.19821 | 121.33325 | 26 ft | 15 kts | 272° |
| 2026-05-05 09:24 | 31.19817 | 121.33183 | 27 ft | 20 kts | 268° |
| 2026-05-05 09:25 | 31.19770 | 121.33073 | 29 ft | 11 kts | 193° |
| 2026-05-05 09:25 | 31.19687 | 121.33043 | 28 ft | 12 kts | 213° |
| 2026-05-05 09:25 | 31.19607 | 121.32978 | 30 ft | 15 kts | 219° |
| 2026-05-05 09:25 | 31.19579 | 121.32859 | 27 ft | 17 kts | 266° |
| 2026-05-05 09:26 | 31.19575 | 121.32757 | 25 ft | 20 kts | 268° |
| 2026-05-05 09:26 | 31.19593 | 121.32652 | 29 ft | 17 kts | 290° |
| 2026-05-05 09:26 | 31.19595 | 121.32553 | 29 ft | 7 kts | 267° |